KBFF/BFF METAR and TAF weather

Enter ICAO airport designator
Station Type Date Time Source
KBFF METAR 2019/08/21 02:53 UTC NOAA

KBFF 210253Z AUTO 03012KT 10SM FEW045 26/18 A3014 RMK AO2 SLP155 T02560183 53


Station Type Date Time Source
KBFF Decoded METAR 2019/08/21 02:53 UTC NOAA

Station name not available
Aug 20, 2019 - 10:53 PM EDT / 2019.08.21 0253 UTC
Wind: from the NNE (030 degrees) at 14 MPH (12 KT):0
Visibility: 10 mile(s):0
Sky conditions: mostly clear
Temperature: 78.1 F (25.6 C)
Dew Point: 64.9 F (18.3 C)
Relative Humidity: 64%
Pressure (altimeter): 30.14 in. Hg (1020 hPa)
Pressure tendency: 0.05 inches (1.8 hPa) higher than three hours ago
ob: KBFF 210253Z AUTO 03012KT 10SM FEW045 26/18 A3014 RMK AO2 SLP155 T02560183 53018
cycle: 3

Station Type Date Time Source
KBFF TAF 2019/08/20 18:39 UTC NOAA

TAF KBFF 201736Z 2018/2118 07010KT P6SM SCT080
FM202000 09015G25KT P6SM SCT060
FM210100 08018KT P6SM VCTS BKN040CB
TEMPO 2104/2106 4SM -TSRA
FM210600 07006KT 4SM BR BKN035 BKN120
FM211000 07004KT 3SM BR SCT008 BKN020

Example: see airport list